sensor_id;sensor_type;location;lat;lon;timestamp;pressure;altitude;pressure_sealevel;temperature;humidity
24486;BME280;13449;49.374;8.584;2023-02-01T00:01:08;101168.53;;;5.28;100.00
24486;BME280;13449;49.374;8.584;2023-02-01T00:03:34;101166.81;;;5.27;100.00
24486;BME280;13449;49.374;8.584;2023-02-01T00:06:04;101173.09;;;5.27;100.00
24486;BME280;13449;49.374;8.584;2023-02-01T00:08:30;101159.69;;;5.26;100.00
24486;BME280;13449;49.374;8.584;2023-02-01T00:10:58;101159.69;;;5.26;100.00
24486;BME280;13449;49.374;8.584;2023-02-01T00:13:28;101152.16;;;5.29;100.00
24486;BME280;13449;49.374;8.584;2023-02-01T00:15:54;101159.41;;;5.29;100.00
24486;BME280;13449;49.374;8.584;2023-02-01T00:18:21;101155.63;;;5.31;100.00
24486;BME280;13449;49.374;8.584;2023-02-01T00:20:48;101151.50;;;5.37;100.00
24486;BME280;13449;49.374;8.584;2023-02-01T00:23:14;101154.59;;;5.32;100.00
24486;BME280;13449;49.374;8.584;2023-02-01T00:25:41;101160.16;;;5.31;100.00
24486;BME280;13449;49.374;8.584;2023-02-01T00:28:10;101154.59;;;5.32;100.00
24486;BME280;13449;49.374;8.584;2023-02-01T00:30:39;101145.50;;;5.33;100.00
24486;BME280;13449;49.374;8.584;2023-02-01T00:33:08;101147.22;;;5.34;100.00
24486;BME280;13449;49.374;8.584;2023-02-01T00:35:35;101148.94;;;5.35;100.00
24486;BME280;13449;49.374;8.584;2023-02-01T00:38:01;101149.81;;;5.36;100.00
24486;BME280;13449;49.374;8.584;2023-02-01T00:40:28;101162.47;;;5.35;100.00
24486;BME280;13449;49.374;8.584;2023-02-01T00:42:54;101165.00;;;5.37;100.00
24486;BME280;13449;49.374;8.584;2023-02-01T00:45:23;101165.47;;;5.42;100.00
24486;BME280;13449;49.374;8.584;2023-02-01T00:47:49;101162.03;;;5.40;100.00
24486;BME280;13449;49.374;8.584;2023-02-01T00:50:19;101153.22;;;5.38;100.00
24486;BME280;13449;49.374;8.584;2023-02-01T00:52:46;101138.84;;;5.38;100.00
24486;BME280;13449;49.374;8.584;2023-02-01T00:55:12;101141.53;;;5.38;100.00
24486;BME280;13449;49.374;8.584;2023-02-01T00:57:39;101152.50;;;5.36;100.00
24486;BME280;13449;49.374;8.584;2023-02-01T01:00:06;101151.66;;;5.35;100.00
24486;BME280;13449;49.374;8.584;2023-02-01T01:02:32;101146.94;;;5.38;100.00
24486;BME280;13449;49.374;8.584;2023-02-01T01:05:01;101135.28;;;5.37;100.00
24486;BME280;13449;49.374;8.584;2023-02-01T01:07:28;101128.41;;;5.33;100.00
24486;BME280;13449;49.374;8.584;2023-02-01T01:09:54;101131.84;;;5.35;100.00
24486;BME280;13449;49.374;8.584;2023-02-01T01:12:21;101139.22;;;5.33;100.00
24486;BME280;13449;49.374;8.584;2023-02-01T01:14:48;101143.94;;;5.31;100.00
24486;BME280;13449;49.374;8.584;2023-02-01T01:17:14;101153.50;;;5.35;100.00
24486;BME280;13449;49.374;8.584;2023-02-01T01:19:40;101166.84;;;5.36;100.00
24486;BME280;13449;49.374;8.584;2023-02-01T01:22:09;101163.91;;;5.40;100.00
24486;BME280;13449;49.374;8.584;2023-02-01T01:24:36;101161.19;;;5.40;100.00
24486;BME280;13449;49.374;8.584;2023-02-01T01:27:02;101154.94;;;5.39;100.00
24486;BME280;13449;49.374;8.584;2023-02-01T01:29:29;101160.34;;;5.39;100.00
24486;BME280;13449;49.374;8.584;2023-02-01T01:31:59;101168.47;;;5.39;100.00
24486;BME280;13449;49.374;8.584;2023-02-01T01:34:25;101165.00;;;5.37;100.00
24486;BME280;13449;49.374;8.584;2023-02-01T01:36:52;101170.03;;;5.42;100.00
24486;BME280;13449;49.374;8.584;2023-02-01T01:39:18;101159.47;;;5.39;100.00
24486;BME280;13449;49.374;8.584;2023-02-01T01:41:47;101155.50;;;5.43;100.00
24486;BME280;13449;49.374;8.584;2023-02-01T01:47:26;101143.84;;;5.42;100.00
24486;BME280;13449;49.374;8.584;2023-02-01T01:49:56;101141.25;;;5.41;100.00
24486;BME280;13449;49.374;8.584;2023-02-01T01:52:23;101138.84;;;5.38;100.00
24486;BME280;13449;49.374;8.584;2023-02-01T01:54:52;101147.09;;;5.36;100.00
24486;BME280;13449;49.374;8.584;2023-02-01T01:57:39;101139.00;;;5.36;100.00
24486;BME280;13449;49.374;8.584;2023-02-01T02:00:09;101139.69;;;5.38;100.00
24486;BME280;13449;49.374;8.584;2023-02-01T02:02:43;101137.09;;;5.36;100.00
24486;BME280;13449;49.374;8.584;2023-02-01T02:05:12;101128.16;;;5.36;100.00
24486;BME280;13449;49.374;8.584;2023-02-01T02:07:42;101126.44;;;5.35;100.00
24486;BME280;13449;49.374;8.584;2023-02-01T02:10:11;101123.34;;;5.40;100.00
24486;BME280;13449;49.374;8.584;2023-02-01T02:12:40;101137.69;;;5.40;100.00
24486;BME280;13449;49.374;8.584;2023-02-01T02:15:09;101137.69;;;5.40;100.00
24486;BME280;13449;49.374;8.584;2023-02-01T02:23:33;101130.44;;;5.41;100.00
24486;BME280;13449;49.374;8.584;2023-02-01T02:37:17;101121.34;;;5.42;100.00
24486;BME280;13449;49.374;8.584;2023-02-01T02:40:00;101115.06;;;5.41;100.00
24486;BME280;13449;49.374;8.584;2023-02-01T02:42:37;101119.34;;;5.44;100.00
24486;BME280;13449;49.374;8.584;2023-02-01T02:45:29;101105.28;;;5.50;100.00
24486;BME280;13449;49.374;8.584;2023-02-01T02:48:37;101084.81;;;5.57;100.00
24486;BME280;13449;49.374;8.584;2023-02-01T02:51:14;101081.25;;;5.56;100.00
24486;BME280;13449;49.374;8.584;2023-02-01T02:54:13;101078.13;;;5.61;100.00
24486;BME280;13449;49.374;8.584;2023-02-01T02:57:00;101091.25;;;5.65;100.00
24486;BME280;13449;49.374;8.584;2023-02-01T02:59:47;101081.69;;;5.71;100.00
24486;BME280;13449;49.374;8.584;2023-02-01T03:02:33;101083.97;;;5.75;99.88
24486;BME280;13449;49.374;8.584;2023-02-01T03:05:19;101086.00;;;5.73;100.00
24486;BME280;13449;49.374;8.584;2023-02-01T03:10:40;101081.41;;;5.74;100.00
24486;BME280;13449;49.374;8.584;2023-02-01T03:13:12;101084.41;;;5.71;100.00
24486;BME280;13449;49.374;8.584;2023-02-01T03:18:30;101084.09;;;5.64;100.00
24486;BME280;13449;49.374;8.584;2023-02-01T03:21:03;101076.69;;;5.66;100.00
24486;BME280;13449;49.374;8.584;2023-02-01T03:23:32;101081.41;;;5.64;100.00
24486;BME280;13449;49.374;8.584;2023-02-01T03:26:01;101072.72;;;5.61;100.00
24486;BME280;13449;49.374;8.584;2023-02-01T03:28:31;101080.94;;;5.59;100.00
24486;BME280;13449;49.374;8.584;2023-02-01T03:31:00;101074.84;;;5.57;100.00
24486;BME280;13449;49.374;8.584;2023-02-01T03:33:27;101077.69;;;5.56;100.00
24486;BME280;13449;49.374;8.584;2023-02-01T03:38:50;101079.53;;;5.55;100.00
24486;BME280;13449;49.374;8.584;2023-02-01T03:41:31;101069.72;;;5.54;100.00
24486;BME280;13449;49.374;8.584;2023-02-01T03:47:24;101071.28;;;5.57;100.00
24486;BME280;13449;49.374;8.584;2023-02-01T03:49:58;101075.81;;;5.56;100.00
24486;BME280;13449;49.374;8.584;2023-02-01T03:55:17;101079.53;;;5.55;100.00
24486;BME280;13449;49.374;8.584;2023-02-01T03:57:52;101079.81;;;5.52;100.00
24486;BME280;13449;49.374;8.584;2023-02-01T04:00:23;101080.38;;;5.56;100.00
24486;BME280;13449;49.374;8.584;2023-02-01T04:02:52;101083.38;;;5.53;100.00
24486;BME280;13449;49.374;8.584;2023-02-01T04:05:19;101087.22;;;5.50;100.00
24486;BME280;13449;49.374;8.584;2023-02-01T04:07:46;101088.91;;;5.51;100.00
24486;BME280;13449;49.374;8.584;2023-02-01T04:10:13;101080.53;;;5.54;100.00
24486;BME280;13449;49.374;8.584;2023-02-01T04:12:39;101082.09;;;5.57;100.00
24486;BME280;13449;49.374;8.584;2023-02-01T04:15:08;101067.44;;;5.59;100.00
24486;BME280;13449;49.374;8.584;2023-02-01T04:17:35;101066.56;;;5.59;100.00
24486;BME280;13449;49.374;8.584;2023-02-01T04:20:01;101074.69;;;5.59;100.00
24486;BME280;13449;49.374;8.584;2023-02-01T04:22:30;101071.16;;;5.58;100.00
24486;BME280;13449;49.374;8.584;2023-02-01T04:24:59;101062.03;;;5.59;100.00
24486;BME280;13449;49.374;8.584;2023-02-01T04:27:26;101052.06;;;5.60;100.00
24486;BME280;13449;49.374;8.584;2023-02-01T04:29:55;101050.50;;;5.57;100.00
24486;BME280;13449;49.374;8.584;2023-02-01T04:32:23;101052.63;;;5.54;100.00
24486;BME280;13449;49.374;8.584;2023-02-01T04:34:50;101061.59;;;5.54;100.00
24486;BME280;13449;49.374;8.584;2023-02-01T04:37:17;101064.72;;;5.59;100.00
24486;BME280;13449;49.374;8.584;2023-02-01T04:39:43;101069.44;;;5.57;100.00
24486;BME280;13449;49.374;8.584;2023-02-01T04:42:12;101071.00;;;5.60;100.00
24486;BME280;13449;49.374;8.584;2023-02-01T04:44:39;101073.56;;;5.61;100.00
24486;BME280;13449;49.374;8.584;2023-02-01T04:47:08;101074.44;;;5.62;100.00
24486;BME280;13449;49.374;8.584;2023-02-01T04:49:35;101087.09;;;5.61;100.00
24486;BME280;13449;49.374;8.584;2023-02-01T04:52:02;101086.25;;;5.61;100.00
24486;BME280;13449;49.374;8.584;2023-02-01T04:54:29;101078.13;;;5.61;100.00
24486;BME280;13449;49.374;8.584;2023-02-01T04:56:55;101073.84;;;5.68;100.00
24486;BME280;13449;49.374;8.584;2023-02-01T04:59:25;101070.28;;;5.67;100.00
24486;BME280;13449;49.374;8.584;2023-02-01T05:01:54;101060.75;;;5.63;100.00
24486;BME280;13449;49.374;8.584;2023-02-01T05:04:30;101060.47;;;5.66;100.00
24486;BME280;13449;49.374;8.584;2023-02-01T05:06:57;101055.06;;;5.66;100.00
24486;BME280;13449;49.374;8.584;2023-02-01T05:09:23;101062.91;;;5.69;100.00
24486;BME280;13449;49.374;8.584;2023-02-01T05:11:50;101060.22;;;5.69;100.00
24486;BME280;13449;49.374;8.584;2023-02-01T05:14:35;101064.59;;;5.70;100.00
24486;BME280;13449;49.374;8.584;2023-02-01T05:17:01;101079.16;;;5.69;100.00
24486;BME280;13449;49.374;8.584;2023-02-01T05:19:28;101072.13;;;5.67;100.00
24486;BME280;13449;49.374;8.584;2023-02-01T05:21:54;101066.03;;;5.65;100.00
24486;BME280;13449;49.374;8.584;2023-02-01T05:24:26;101069.59;;;5.65;100.00
24486;BME280;13449;49.374;8.584;2023-02-01T05:26:53;101071.84;;;5.70;100.00
24486;BME280;13449;49.374;8.584;2023-02-01T05:29:22;101073.16;;;5.66;100.00
24486;BME280;13449;49.374;8.584;2023-02-01T05:31:48;101066.03;;;5.65;100.00
24486;BME280;13449;49.374;8.584;2023-02-01T05:34:18;101074.28;;;5.63;100.00
24486;BME280;13449;49.374;8.584;2023-02-01T05:36:46;101071.84;;;5.60;100.00
24486;BME280;13449;49.374;8.584;2023-02-01T05:39:13;101082.81;;;5.59;100.00
24486;BME280;13449;49.374;8.584;2023-02-01T05:41:42;101078.81;;;5.53;100.00
24486;BME280;13449;49.374;8.584;2023-02-01T05:44:11;101079.22;;;5.49;100.00
24486;BME280;13449;49.374;8.584;2023-02-01T05:46:37;101067.56;;;5.48;100.00
24486;BME280;13449;49.374;8.584;2023-02-01T05:49:04;101079.38;;;5.47;100.00
24486;BME280;13449;49.374;8.584;2023-02-01T05:51:34;101077.66;;;5.46;100.00
24486;BME280;13449;49.374;8.584;2023-02-01T05:54:02;101073.25;;;5.45;100.00
24486;BME280;13449;49.374;8.584;2023-02-01T05:56:29;101072.97;;;5.48;100.00
24486;BME280;13449;49.374;8.584;2023-02-01T05:58:56;101066.44;;;5.51;100.00
24486;BME280;13449;49.374;8.584;2023-02-01T06:01:22;101063.84;;;5.49;100.00
24486;BME280;13449;49.374;8.584;2023-02-01T06:03:49;101069.41;;;5.48;100.00
24486;BME280;13449;49.374;8.584;2023-02-01T06:06:15;101070.25;;;5.48;100.00
24486;BME280;13449;49.374;8.584;2023-02-01T06:08:45;101071.00;;;5.50;100.00
24486;BME280;13449;49.374;8.584;2023-02-01T06:11:14;101071.28;;;5.47;100.00
24486;BME280;13449;49.374;8.584;2023-02-01T06:13:59;101074.81;;;5.48;100.00
24486;BME280;13449;49.374;8.584;2023-02-01T06:16:26;101071.69;;;5.52;100.00
24486;BME280;13449;49.374;8.584;2023-02-01T06:18:53;101068.13;;;5.52;100.00
24486;BME280;13449;49.374;8.584;2023-02-01T06:21:20;101073.69;;;5.50;100.00
24486;BME280;13449;49.374;8.584;2023-02-01T06:23:55;101081.94;;;5.49;100.00
24486;BME280;13449;49.374;8.584;2023-02-01T06:26:23;101098.03;;;5.50;100.00
24486;BME280;13449;49.374;8.584;2023-02-01T06:28:50;101090.22;;;5.47;100.00
24486;BME280;13449;49.374;8.584;2023-02-01T06:31:19;101090.63;;;5.43;100.00
24486;BME280;13449;49.374;8.584;2023-02-01T06:33:45;101089.88;;;5.41;100.00
24486;BME280;13449;49.374;8.584;2023-02-01T06:36:13;101084.75;;;5.38;100.00
24486;BME280;13449;49.374;8.584;2023-02-01T06:38:41;101097.56;;;5.35;100.00
24486;BME280;13449;49.374;8.584;2023-02-01T06:41:08;101095.00;;;5.34;100.00
24486;BME280;13449;49.374;8.584;2023-02-01T06:43:35;101091.31;;;5.35;100.00
24486;BME280;13449;49.374;8.584;2023-02-01T06:46:03;101096.84;;;5.33;100.00
24486;BME280;13449;49.374;8.584;2023-02-01T06:48:30;101099.69;;;5.32;100.00
24486;BME280;13449;49.374;8.584;2023-02-01T06:50:57;101096.84;;;5.33;100.00
24486;BME280;13449;49.374;8.584;2023-02-01T06:53:24;101098.84;;;5.31;100.00
24486;BME280;13449;49.374;8.584;2023-02-01T06:56:01;101110.34;;;5.33;100.00
24486;BME280;13449;49.374;8.584;2023-02-01T06:58:31;101097.69;;;5.34;100.00
24486;BME280;13449;49.374;8.584;2023-02-01T07:01:04;101107.06;;;5.30;100.00
24486;BME280;13449;49.374;8.584;2023-02-01T07:03:34;101095.41;;;5.29;100.00
24486;BME280;13449;49.374;8.584;2023-02-01T07:06:00;101102.25;;;5.33;100.00
24486;BME280;13449;49.374;8.584;2023-02-01T07:08:34;101094.28;;;5.32;100.00
24486;BME280;13449;49.374;8.584;2023-02-01T07:11:03;101110.50;;;5.32;100.00
24486;BME280;13449;49.374;8.584;2023-02-01T07:13:30;101113.91;;;5.34;100.00
24486;BME280;13449;49.374;8.584;2023-02-01T07:16:01;101107.13;;;5.40;100.00
24486;BME280;13449;49.374;8.584;2023-02-01T07:18:28;101116.50;;;5.35;100.00
24486;BME280;13449;49.374;8.584;2023-02-01T07:20:57;101110.22;;;5.35;100.00
24486;BME280;13449;49.374;8.584;2023-02-01T07:23:26;101108.63;;;5.32;100.00
24486;BME280;13449;49.374;8.584;2023-02-01T07:25:58;101101.94;;;5.27;100.00
24486;BME280;13449;49.374;8.584;2023-02-01T07:28:30;101099.63;;;5.22;100.00
24486;BME280;13449;49.374;8.584;2023-02-01T07:31:08;101102.16;;;5.14;100.00
24486;BME280;13449;49.374;8.584;2023-02-01T07:33:37;101106.19;;;5.20;100.00
24486;BME280;13449;49.374;8.584;2023-02-01T07:36:05;101110.84;;;5.18;100.00
24486;BME280;13449;49.374;8.584;2023-02-01T07:38:32;101102.91;;;5.16;100.00
24486;BME280;13449;49.374;8.584;2023-02-01T07:41:00;101099.22;;;5.17;100.00
24486;BME280;13449;49.374;8.584;2023-02-01T07:43:29;101079.72;;;5.23;100.00
24486;BME280;13449;49.374;8.584;2023-02-01T07:45:56;101086.28;;;5.21;100.00
24486;BME280;13449;49.374;8.584;2023-02-01T07:48:24;101088.53;;;5.25;100.00
24486;BME280;13449;49.374;8.584;2023-02-01T07:51:02;101101.47;;;5.22;100.00
24486;BME280;13449;49.374;8.584;2023-02-01T07:53:33;101089.97;;;5.20;100.00
24486;BME280;13449;49.374;8.584;2023-02-01T07:56:00;101093.09;;;5.25;100.00
24486;BME280;13449;49.374;8.584;2023-02-01T07:58:27;101096.53;;;5.27;100.00
24486;BME280;13449;49.374;8.584;2023-02-01T08:00:54;101102.81;;;5.27;100.00
24486;BME280;13449;49.374;8.584;2023-02-01T08:03:40;101105.78;;;5.24;100.00
24486;BME280;13449;49.374;8.584;2023-02-01T08:06:07;101123.59;;;5.36;100.00
24486;BME280;13449;49.374;8.584;2023-02-01T08:08:33;101130.50;;;5.50;100.00
24486;BME280;13449;49.374;8.584;2023-02-01T08:11:01;101127.63;;;5.52;100.00
24486;BME280;13449;49.374;8.584;2023-02-01T08:13:33;101139.34;;;5.62;100.00
24486;BME280;13449;49.374;8.584;2023-02-01T08:16:01;101149.03;;;5.64;100.00
24486;BME280;13449;49.374;8.584;2023-02-01T08:18:29;101157.56;;;5.60;100.00
24486;BME280;13449;49.374;8.584;2023-02-01T08:20:56;101157.13;;;5.55;100.00
24486;BME280;13449;49.374;8.584;2023-02-01T08:23:23;101168.97;;;5.63;100.00
24486;BME280;13449;49.374;8.584;2023-02-01T08:25:50;101168.56;;;5.77;100.00
24486;BME280;13449;49.374;8.584;2023-02-01T08:28:17;101171.06;;;5.90;100.00
24486;BME280;13449;49.374;8.584;2023-02-01T08:30:43;101166.25;;;6.03;100.00
24486;BME280;13449;49.374;8.584;2023-02-01T08:33:10;101162.56;;;6.14;100.00
24486;BME280;13449;49.374;8.584;2023-02-01T08:35:38;101163.69;;;6.21;100.00
24486;BME280;13449;49.374;8.584;2023-02-01T08:38:10;101167.28;;;6.21;100.00
24486;BME280;13449;49.374;8.584;2023-02-01T08:40:38;101171.09;;;6.19;100.00
24486;BME280;13449;49.374;8.584;2023-02-01T08:43:07;101161.53;;;6.15;100.00
24486;BME280;13449;49.374;8.584;2023-02-01T08:45:39;101166.13;;;6.14;100.00
24486;BME280;13449;49.374;8.584;2023-02-01T08:48:08;101165.09;;;6.15;100.00
24486;BME280;13449;49.374;8.584;2023-02-01T08:50:34;101154.72;;;6.20;100.00
24486;BME280;13449;49.374;8.584;2023-02-01T08:53:01;101166.25;;;6.22;100.00
24486;BME280;13449;49.374;8.584;2023-02-01T08:55:27;101163.41;;;6.24;100.00
24486;BME280;13449;49.374;8.584;2023-02-01T08:57:55;101156.28;;;6.23;100.00
24486;BME280;13449;49.374;8.584;2023-02-01T09:00:24;101165.13;;;6.25;100.00
24486;BME280;13449;49.374;8.584;2023-02-01T09:02:51;101154.31;;;6.25;99.72
24486;BME280;13449;49.374;8.584;2023-02-01T09:05:17;101165.53;;;6.30;97.32
24486;BME280;13449;49.374;8.584;2023-02-01T09:07:48;101163.69;;;6.30;96.71
24486;BME280;13449;49.374;8.584;2023-02-01T09:10:15;101163.56;;;6.32;96.85
24486;BME280;13449;49.374;8.584;2023-02-01T09:12:46;101162.28;;;6.36;95.98
24486;BME280;13449;49.374;8.584;2023-02-01T09:15:12;101170.25;;;6.38;96.70
24486;BME280;13449;49.374;8.584;2023-02-01T09:17:39;101174.97;;;6.45;96.31
24486;BME280;13449;49.374;8.584;2023-02-01T09:20:09;101181.25;;;6.55;95.66
24486;BME280;13449;49.374;8.584;2023-02-01T09:22:35;101186.81;;;6.63;95.23
24486;BME280;13449;49.374;8.584;2023-02-01T09:25:02;101185.25;;;6.70;94.41
24486;BME280;13449;49.374;8.584;2023-02-01T09:27:29;101177.50;;;6.75;91.48
24486;BME280;13449;49.374;8.584;2023-02-01T09:29:57;101173.50;;;6.79;93.06
24486;BME280;13449;49.374;8.584;2023-02-01T09:32:24;101179.06;;;6.88;92.84
24486;BME280;13449;49.374;8.584;2023-02-01T09:34:52;101172.50;;;6.90;91.90
24486;BME280;13449;49.374;8.584;2023-02-01T09:37:19;101174.06;;;6.93;91.93
24486;BME280;13449;49.374;8.584;2023-02-01T09:39:45;101178.19;;;7.06;91.80
24486;BME280;13449;49.374;8.584;2023-02-01T09:45:16;101190.38;;;7.29;90.70
24486;BME280;13449;49.374;8.584;2023-02-01T09:47:56;101196.94;;;7.37;89.89
24486;BME280;13449;49.374;8.584;2023-02-01T09:50:34;101188.94;;;7.35;89.30
24486;BME280;13449;49.374;8.584;2023-02-01T09:53:09;101197.78;;;7.37;89.42
24486;BME280;13449;49.374;8.584;2023-02-01T09:55:45;101216.78;;;7.37;89.85
24486;BME280;13449;49.374;8.584;2023-02-01T09:58:22;101226.81;;;7.27;88.37
24486;BME280;13449;49.374;8.584;2023-02-01T10:00:54;101237.22;;;7.22;88.22
24486;BME280;13449;49.374;8.584;2023-02-01T10:03:24;101234.09;;;7.17;86.90
24486;BME280;13449;49.374;8.584;2023-02-01T10:06:28;101238.09;;;7.13;86.99
24486;BME280;13449;49.374;8.584;2023-02-01T10:22:43;101261.50;;;7.14;82.46
24486;BME280;13449;49.374;8.584;2023-02-01T10:25:53;101248.09;;;7.12;81.98
24486;BME280;13449;49.374;8.584;2023-02-01T10:28:24;101248.38;;;7.09;80.68
24486;BME280;13449;49.374;8.584;2023-02-01T10:30:58;101260.09;;;7.10;79.57
24486;BME280;13449;49.374;8.584;2023-02-01T10:33:30;101257.38;;;7.10;79.30
24486;BME280;13449;49.374;8.584;2023-02-01T10:36:04;101246.81;;;7.07;79.55
24486;BME280;13449;49.374;8.584;2023-02-01T10:38:38;101238.09;;;7.13;79.33
24486;BME280;13449;49.374;8.584;2023-02-01T10:41:16;101239.69;;;7.15;79.06
24486;BME280;13449;49.374;8.584;2023-02-01T10:43:45;101230.53;;;7.16;79.24
24486;BME280;13449;49.374;8.584;2023-02-01T10:46:14;101239.38;;;7.18;79.50
24486;BME280;13449;49.374;8.584;2023-02-01T10:48:41;101241.94;;;7.20;78.62
24486;BME280;13449;49.374;8.584;2023-02-01T10:51:47;101238.66;;;7.16;80.00
24486;BME280;13449;49.374;8.584;2023-02-01T10:54:21;101232.09;;;7.09;80.26
24486;BME280;13449;49.374;8.584;2023-02-01T10:56:51;101239.25;;;7.10;79.60
24486;BME280;13449;49.374;8.584;2023-02-01T10:59:23;101235.56;;;7.11;78.68
24486;BME280;13449;49.374;8.584;2023-02-01T11:01:59;101235.69;;;7.19;77.66
24486;BME280;13449;49.374;8.584;2023-02-01T11:04:26;101221.81;;;7.22;78.30
24486;BME280;13449;49.374;8.584;2023-02-01T11:09:39;101210.13;;;7.22;77.95
24486;BME280;13449;49.374;8.584;2023-02-01T11:12:22;101196.41;;;7.23;79.12
24486;BME280;13449;49.374;8.584;2023-02-01T11:14:57;101188.13;;;7.25;79.05
24486;BME280;13449;49.374;8.584;2023-02-01T11:17:29;101195.25;;;7.26;78.01
24486;BME280;13449;49.374;8.584;2023-02-01T11:20:13;101192.69;;;7.24;76.97
24486;BME280;13449;49.374;8.584;2023-02-01T11:22:49;101192.53;;;7.26;76.38
24486;BME280;13449;49.374;8.584;2023-02-01T11:25:20;101170.97;;;7.24;77.90
24486;BME280;13449;49.374;8.584;2023-02-01T11:27:50;101177.25;;;7.25;77.30
24486;BME280;13449;49.374;8.584;2023-02-01T11:30:31;101185.53;;;7.33;78.31
24486;BME280;13449;49.374;8.584;2023-02-01T11:33:03;101176.41;;;7.34;77.87
24486;BME280;13449;49.374;8.584;2023-02-01T11:35:38;101178.69;;;7.29;77.52
24486;BME280;13449;49.374;8.584;2023-02-01T11:38:20;101160.31;;;7.23;78.69
24486;BME280;13449;49.374;8.584;2023-02-01T11:40:47;101167.88;;;7.19;78.68
24486;BME280;13449;49.374;8.584;2023-02-01T11:43:24;101169.00;;;7.17;79.01
24486;BME280;13449;49.374;8.584;2023-02-01T11:46:00;101181.00;;;7.14;79.18
24486;BME280;13449;49.374;8.584;2023-02-01T11:48:31;101164.19;;;7.11;78.98
24486;BME280;13449;49.374;8.584;2023-02-01T11:51:14;101167.88;;;7.10;79.09
24486;BME280;13449;49.374;8.584;2023-02-01T11:56:47;101165.34;;;7.08;79.21
24486;BME280;13449;49.374;8.584;2023-02-01T11:59:33;101165.34;;;7.08;80.01
24486;BME280;13449;49.374;8.584;2023-02-01T12:02:33;101159.06;;;7.08;79.48
24486;BME280;13449;49.374;8.584;2023-02-01T12:05:52;101170.75;;;7.08;78.57
24486;BME280;13449;49.374;8.584;2023-02-01T12:08:26;101169.03;;;7.07;78.62
24486;BME280;13449;49.374;8.584;2023-02-01T12:11:26;101167.88;;;7.10;78.87
24486;BME280;13449;49.374;8.584;2023-02-01T12:19:36;101180.72;;;7.17;78.09
24486;BME280;13449;49.374;8.584;2023-02-01T12:25:03;101178.72;;;7.19;78.24
24486;BME280;13449;49.374;8.584;2023-02-01T12:35:44;101178.44;;;7.22;75.75
24486;BME280;13449;49.374;8.584;2023-02-01T12:51:35;101162.72;;;7.16;76.21
24486;BME280;13449;49.374;8.584;2023-02-01T12:54:17;101154.31;;;7.19;76.37
24486;BME280;13449;49.374;8.584;2023-02-01T12:56:57;101159.75;;;7.19;75.80
24486;BME280;13449;49.374;8.584;2023-02-01T12:59:59;101147.28;;;7.26;75.88
24486;BME280;13449;49.374;8.584;2023-02-01T13:05:31;101139.00;;;7.28;75.92
24486;BME280;13449;49.374;8.584;2023-02-01T13:08:14;101128.88;;;7.30;75.08
24486;BME280;13449;49.374;8.584;2023-02-01T13:13:20;101142.00;;;7.25;73.79
24486;BME280;13449;49.374;8.584;2023-02-01T13:15:58;101119.88;;;7.20;74.44
24486;BME280;13449;49.374;8.584;2023-02-01T13:18:34;101120.75;;;7.20;74.92
24486;BME280;13449;49.374;8.584;2023-02-01T13:21:06;101120.34;;;7.15;74.72
24486;BME280;13449;49.374;8.584;2023-02-01T13:23:35;101108.47;;;7.16;75.58
24486;BME280;13449;49.374;8.584;2023-02-01T13:26:03;101111.50;;;7.13;75.42
24486;BME280;13449;49.374;8.584;2023-02-01T13:28:42;101114.38;;;7.12;74.90
24486;BME280;13449;49.374;8.584;2023-02-01T13:43:24;101110.06;;;7.19;72.63
24486;BME280;13449;49.374;8.584;2023-02-01T13:46:04;101110.06;;;7.19;73.53
24486;BME280;13449;49.374;8.584;2023-02-01T13:48:47;101097.50;;;7.18;74.21
24486;BME280;13449;49.374;8.584;2023-02-01T13:51:41;101097.63;;;7.16;74.93
24486;BME280;13449;49.374;8.584;2023-02-01T13:56:56;101106.63;;;7.17;73.92
24486;BME280;13449;49.374;8.584;2023-02-01T13:59:51;101099.91;;;7.21;74.38
24486;BME280;13449;49.374;8.584;2023-02-01T14:10:59;101103.47;;;7.21;73.87
24486;BME280;13449;49.374;8.584;2023-02-01T14:21:31;101106.81;;;7.15;73.59
24486;BME280;13449;49.374;8.584;2023-02-01T14:24:01;101104.34;;;7.12;73.85
24486;BME280;13449;49.374;8.584;2023-02-01T14:31:58;101112.97;;;7.08;73.54
24486;BME280;13449;49.374;8.584;2023-02-01T14:37:07;101109.66;;;7.14;74.06
24486;BME280;13449;49.374;8.584;2023-02-01T14:47:50;101111.50;;;7.13;74.50
24486;BME280;13449;49.374;8.584;2023-02-01T14:50:21;101128.75;;;7.12;73.71
24486;BME280;13449;49.374;8.584;2023-02-01T15:01:17;101116.25;;;7.02;74.84
24486;BME280;13449;49.374;8.584;2023-02-01T15:03:55;101122.53;;;7.02;74.27
24486;BME280;13449;49.374;8.584;2023-02-01T15:06:45;101133.53;;;7.01;73.47
24486;BME280;13449;49.374;8.584;2023-02-01T15:14:42;101151.31;;;7.13;71.57
24486;BME280;13449;49.374;8.584;2023-02-01T15:17:19;101138.78;;;7.12;72.33
24486;BME280;13449;49.374;8.584;2023-02-01T15:19:56;101137.75;;;7.13;71.93
24486;BME280;13449;49.374;8.584;2023-02-01T15:22:24;101136.22;;;7.10;71.98
24486;BME280;13449;49.374;8.584;2023-02-01T15:24:55;101155.75;;;7.14;71.31
24486;BME280;13449;49.374;8.584;2023-02-01T15:27:23;101149.88;;;7.18;71.29
24486;BME280;13449;49.374;8.584;2023-02-01T15:29:50;101153.84;;;7.24;71.15
24486;BME280;13449;49.374;8.584;2023-02-01T15:34:58;101152.41;;;7.29;70.35
24486;BME280;13449;49.374;8.584;2023-02-01T15:37:29;101137.13;;;7.28;70.31
24486;BME280;13449;49.374;8.584;2023-02-01T15:42:58;101111.47;;;7.23;71.73
24486;BME280;13449;49.374;8.584;2023-02-01T15:45:28;101113.34;;;7.22;71.70
24486;BME280;13449;49.374;8.584;2023-02-01T15:47:57;101108.22;;;7.19;71.81
24486;BME280;13449;49.374;8.584;2023-02-01T15:50:24;101096.38;;;7.11;73.13
24486;BME280;13449;49.374;8.584;2023-02-01T15:52:53;101100.09;;;7.10;72.59
24486;BME280;13449;49.374;8.584;2023-02-01T15:55:23;101096.69;;;7.08;73.22